sensor_id;sensor_type;location;lat;lon;timestamp;P1;durP1;ratioP1;P2;durP2;ratioP2
71637;SDS011;59485;43.542;-5.676;2024-01-15T00:01:16;24.83;;;20.33;;
71637;SDS011;59485;43.542;-5.676;2024-01-15T00:03:42;24.20;;;18.85;;
71637;SDS011;59485;43.542;-5.676;2024-01-15T00:06:07;28.13;;;20.30;;
71637;SDS011;59485;43.542;-5.676;2024-01-15T00:08:33;25.35;;;20.10;;
71637;SDS011;59485;43.542;-5.676;2024-01-15T00:10:59;25.50;;;20.00;;
71637;SDS011;59485;43.542;-5.676;2024-01-15T00:13:24;26.05;;;21.17;;
71637;SDS011;59485;43.542;-5.676;2024-01-15T00:15:50;26.77;;;20.33;;
71637;SDS011;59485;43.542;-5.676;2024-01-15T00:18:16;22.20;;;19.73;;
71637;SDS011;59485;43.542;-5.676;2024-01-15T00:20:41;25.73;;;20.47;;
71637;SDS011;59485;43.542;-5.676;2024-01-15T00:23:07;25.63;;;20.47;;
71637;SDS011;59485;43.542;-5.676;2024-01-15T00:25:33;24.27;;;19.85;;
71637;SDS011;59485;43.542;-5.676;2024-01-15T00:27:58;22.87;;;19.10;;
71637;SDS011;59485;43.542;-5.676;2024-01-15T00:30:24;22.90;;;18.50;;
71637;SDS011;59485;43.542;-5.676;2024-01-15T00:32:49;24.20;;;18.90;;
71637;SDS011;59485;43.542;-5.676;2024-01-15T00:35:15;24.87;;;19.57;;
71637;SDS011;59485;43.542;-5.676;2024-01-15T00:37:40;24.42;;;19.00;;
71637;SDS011;59485;43.542;-5.676;2024-01-15T00:40:06;25.50;;;19.33;;
71637;SDS011;59485;43.542;-5.676;2024-01-15T00:42:33;25.55;;;20.77;;
71637;SDS011;59485;43.542;-5.676;2024-01-15T00:44:59;22.38;;;18.98;;
71637;SDS011;59485;43.542;-5.676;2024-01-15T00:47:24;24.17;;;19.83;;
71637;SDS011;59485;43.542;-5.676;2024-01-15T00:49:50;25.10;;;18.70;;
71637;SDS011;59485;43.542;-5.676;2024-01-15T00:52:15;26.17;;;20.00;;
71637;SDS011;59485;43.542;-5.676;2024-01-15T00:54:41;21.17;;;17.67;;
71637;SDS011;59485;43.542;-5.676;2024-01-15T00:57:07;22.60;;;17.23;;
71637;SDS011;59485;43.542;-5.676;2024-01-15T00:59:32;26.10;;;17.77;;
71637;SDS011;59485;43.542;-5.676;2024-01-15T01:01:58;20.07;;;15.40;;
71637;SDS011;59485;43.542;-5.676;2024-01-15T01:04:23;17.73;;;14.85;;
71637;SDS011;59485;43.542;-5.676;2024-01-15T01:06:49;19.53;;;15.40;;
71637;SDS011;59485;43.542;-5.676;2024-01-15T01:09:14;17.67;;;15.53;;
71637;SDS011;59485;43.542;-5.676;2024-01-15T01:11:40;22.77;;;15.10;;
71637;SDS011;59485;43.542;-5.676;2024-01-15T01:14:05;24.50;;;15.27;;
71637;SDS011;59485;43.542;-5.676;2024-01-15T01:16:31;31.70;;;16.77;;
71637;SDS011;59485;43.542;-5.676;2024-01-15T01:19:03;25.95;;;16.60;;
71637;SDS011;59485;43.542;-5.676;2024-01-15T01:21:29;28.87;;;17.87;;
71637;SDS011;59485;43.542;-5.676;2024-01-15T01:23:55;33.30;;;20.33;;
71637;SDS011;59485;43.542;-5.676;2024-01-15T01:26:20;33.00;;;19.77;;
71637;SDS011;59485;43.542;-5.676;2024-01-15T01:28:46;34.20;;;18.33;;
71637;SDS011;59485;43.542;-5.676;2024-01-15T01:31:11;25.58;;;17.95;;
71637;SDS011;59485;43.542;-5.676;2024-01-15T01:33:38;22.10;;;15.97;;
71637;SDS011;59485;43.542;-5.676;2024-01-15T01:36:08;19.80;;;15.27;;
71637;SDS011;59485;43.542;-5.676;2024-01-15T01:38:35;21.90;;;14.43;;
71637;SDS011;59485;43.542;-5.676;2024-01-15T01:41:01;19.80;;;14.63;;
71637;SDS011;59485;43.542;-5.676;2024-01-15T01:43:26;18.17;;;14.10;;
71637;SDS011;59485;43.542;-5.676;2024-01-15T01:45:52;17.67;;;13.43;;
71637;SDS011;59485;43.542;-5.676;2024-01-15T01:48:20;20.27;;;14.52;;
71637;SDS011;59485;43.542;-5.676;2024-01-15T01:50:46;21.40;;;15.63;;
71637;SDS011;59485;43.542;-5.676;2024-01-15T01:53:12;22.13;;;15.77;;
71637;SDS011;59485;43.542;-5.676;2024-01-15T01:55:37;20.20;;;16.07;;
71637;SDS011;59485;43.542;-5.676;2024-01-15T01:58:03;23.92;;;17.90;;
71637;SDS011;59485;43.542;-5.676;2024-01-15T02:00:30;21.92;;;18.73;;
71637;SDS011;59485;43.542;-5.676;2024-01-15T02:02:56;21.40;;;15.70;;
71637;SDS011;59485;43.542;-5.676;2024-01-15T02:05:22;18.27;;;14.90;;
71637;SDS011;59485;43.542;-5.676;2024-01-15T02:07:48;16.52;;;13.57;;
71637;SDS011;59485;43.542;-5.676;2024-01-15T02:10:13;16.50;;;12.80;;
71637;SDS011;59485;43.542;-5.676;2024-01-15T02:12:39;16.02;;;12.85;;
71637;SDS011;59485;43.542;-5.676;2024-01-15T02:15:05;21.93;;;14.83;;
71637;SDS011;59485;43.542;-5.676;2024-01-15T02:17:31;20.92;;;12.95;;
71637;SDS011;59485;43.542;-5.676;2024-01-15T02:19:57;14.45;;;12.05;;
71637;SDS011;59485;43.542;-5.676;2024-01-15T02:22:22;14.90;;;11.70;;
71637;SDS011;59485;43.542;-5.676;2024-01-15T02:24:48;13.70;;;10.13;;
71637;SDS011;59485;43.542;-5.676;2024-01-15T02:27:13;17.48;;;11.05;;
71637;SDS011;59485;43.542;-5.676;2024-01-15T02:29:39;16.37;;;11.53;;
71637;SDS011;59485;43.542;-5.676;2024-01-15T02:32:05;14.40;;;10.70;;
71637;SDS011;59485;43.542;-5.676;2024-01-15T02:34:32;12.35;;;9.63;;
71637;SDS011;59485;43.542;-5.676;2024-01-15T02:36:58;11.50;;;9.67;;
71637;SDS011;59485;43.542;-5.676;2024-01-15T02:39:23;12.68;;;9.30;;
71637;SDS011;59485;43.542;-5.676;2024-01-15T02:41:49;11.33;;;9.10;;
71637;SDS011;59485;43.542;-5.676;2024-01-15T02:44:14;11.85;;;8.90;;
71637;SDS011;59485;43.542;-5.676;2024-01-15T02:46:40;11.40;;;8.77;;
71637;SDS011;59485;43.542;-5.676;2024-01-15T02:49:05;10.47;;;9.37;;
71637;SDS011;59485;43.542;-5.676;2024-01-15T02:51:31;13.77;;;8.80;;
71637;SDS011;59485;43.542;-5.676;2024-01-15T02:53:56;9.63;;;8.27;;
71637;SDS011;59485;43.542;-5.676;2024-01-15T02:56:22;10.53;;;8.53;;
71637;SDS011;59485;43.542;-5.676;2024-01-15T02:58:47;10.15;;;8.88;;
71637;SDS011;59485;43.542;-5.676;2024-01-15T03:01:13;14.70;;;10.60;;
71637;SDS011;59485;43.542;-5.676;2024-01-15T03:03:39;15.47;;;10.57;;
71637;SDS011;59485;43.542;-5.676;2024-01-15T03:06:05;12.20;;;10.45;;
71637;SDS011;59485;43.542;-5.676;2024-01-15T03:08:31;13.25;;;10.80;;
71637;SDS011;59485;43.542;-5.676;2024-01-15T03:10:56;12.07;;;10.87;;
71637;SDS011;59485;43.542;-5.676;2024-01-15T03:13:22;14.80;;;11.40;;
71637;SDS011;59485;43.542;-5.676;2024-01-15T03:15:47;16.30;;;11.88;;
71637;SDS011;59485;43.542;-5.676;2024-01-15T03:18:13;16.40;;;11.10;;
71637;SDS011;59485;43.542;-5.676;2024-01-15T03:20:38;15.43;;;12.80;;
71637;SDS011;59485;43.542;-5.676;2024-01-15T03:23:04;17.15;;;12.90;;
71637;SDS011;59485;43.542;-5.676;2024-01-15T03:25:29;14.77;;;11.77;;
71637;SDS011;59485;43.542;-5.676;2024-01-15T03:27:55;17.47;;;12.73;;
71637;SDS011;59485;43.542;-5.676;2024-01-15T03:30:20;14.50;;;12.55;;
71637;SDS011;59485;43.542;-5.676;2024-01-15T03:32:46;15.07;;;12.40;;
71637;SDS011;59485;43.542;-5.676;2024-01-15T03:35:12;15.48;;;12.25;;
71637;SDS011;59485;43.542;-5.676;2024-01-15T03:37:38;14.67;;;12.40;;
71637;SDS011;59485;43.542;-5.676;2024-01-15T03:40:03;16.13;;;12.30;;
71637;SDS011;59485;43.542;-5.676;2024-01-15T03:42:29;16.90;;;11.48;;
71637;SDS011;59485;43.542;-5.676;2024-01-15T03:44:55;16.38;;;11.27;;
71637;SDS011;59485;43.542;-5.676;2024-01-15T03:47:20;13.77;;;10.93;;
71637;SDS011;59485;43.542;-5.676;2024-01-15T03:49:46;13.70;;;11.57;;
71637;SDS011;59485;43.542;-5.676;2024-01-15T03:52:11;14.30;;;11.98;;
71637;SDS011;59485;43.542;-5.676;2024-01-15T03:54:37;12.67;;;11.03;;
71637;SDS011;59485;43.542;-5.676;2024-01-15T03:57:03;17.83;;;12.43;;
71637;SDS011;59485;43.542;-5.676;2024-01-15T03:59:28;20.07;;;13.27;;
71637;SDS011;59485;43.542;-5.676;2024-01-15T04:01:54;19.67;;;14.07;;
71637;SDS011;59485;43.542;-5.676;2024-01-15T04:04:19;17.35;;;13.55;;
71637;SDS011;59485;43.542;-5.676;2024-01-15T04:06:45;16.33;;;12.13;;
71637;SDS011;59485;43.542;-5.676;2024-01-15T04:09:14;15.82;;;12.00;;
71637;SDS011;59485;43.542;-5.676;2024-01-15T04:11:40;14.10;;;11.00;;
71637;SDS011;59485;43.542;-5.676;2024-01-15T04:14:05;15.13;;;11.93;;
71637;SDS011;59485;43.542;-5.676;2024-01-15T04:16:31;15.87;;;12.47;;
71637;SDS011;59485;43.542;-5.676;2024-01-15T04:18:56;15.13;;;12.40;;
71637;SDS011;59485;43.542;-5.676;2024-01-15T04:21:22;16.35;;;12.13;;
71637;SDS011;59485;43.542;-5.676;2024-01-15T04:23:47;18.53;;;12.53;;
71637;SDS011;59485;43.542;-5.676;2024-01-15T04:26:13;18.47;;;13.53;;
71637;SDS011;59485;43.542;-5.676;2024-01-15T04:28:38;20.33;;;12.98;;
71637;SDS011;59485;43.542;-5.676;2024-01-15T04:31:04;15.23;;;10.37;;
71637;SDS011;59485;43.542;-5.676;2024-01-15T04:33:29;15.30;;;10.70;;
71637;SDS011;59485;43.542;-5.676;2024-01-15T04:35:55;15.02;;;10.27;;
71637;SDS011;59485;43.542;-5.676;2024-01-15T04:38:20;15.10;;;10.13;;
71637;SDS011;59485;43.542;-5.676;2024-01-15T04:40:46;12.80;;;9.90;;
71637;SDS011;59485;43.542;-5.676;2024-01-15T04:43:12;13.38;;;9.63;;
71637;SDS011;59485;43.542;-5.676;2024-01-15T04:45:37;16.03;;;10.00;;
71637;SDS011;59485;43.542;-5.676;2024-01-15T04:48:03;11.63;;;9.13;;
71637;SDS011;59485;43.542;-5.676;2024-01-15T04:50:29;13.60;;;10.43;;
71637;SDS011;59485;43.542;-5.676;2024-01-15T04:52:54;11.93;;;10.60;;
71637;SDS011;59485;43.542;-5.676;2024-01-15T04:55:20;12.27;;;9.27;;
71637;SDS011;59485;43.542;-5.676;2024-01-15T04:57:45;14.43;;;9.93;;
71637;SDS011;59485;43.542;-5.676;2024-01-15T05:00:11;14.52;;;10.32;;
71637;SDS011;59485;43.542;-5.676;2024-01-15T05:02:38;13.83;;;8.80;;
71637;SDS011;59485;43.542;-5.676;2024-01-15T05:05:03;13.38;;;9.55;;
71637;SDS011;59485;43.542;-5.676;2024-01-15T05:07:29;11.77;;;9.60;;
71637;SDS011;59485;43.542;-5.676;2024-01-15T05:09:54;13.77;;;9.43;;
71637;SDS011;59485;43.542;-5.676;2024-01-15T05:12:20;10.10;;;8.50;;
71637;SDS011;59485;43.542;-5.676;2024-01-15T05:14:45;9.90;;;8.00;;
71637;SDS011;59485;43.542;-5.676;2024-01-15T05:17:11;11.77;;;7.97;;
71637;SDS011;59485;43.542;-5.676;2024-01-15T05:19:37;9.63;;;8.30;;
71637;SDS011;59485;43.542;-5.676;2024-01-15T05:22:02;11.93;;;8.50;;
71637;SDS011;59485;43.542;-5.676;2024-01-15T05:24:28;10.52;;;8.55;;
71637;SDS011;59485;43.542;-5.676;2024-01-15T05:26:53;13.40;;;9.47;;
71637;SDS011;59485;43.542;-5.676;2024-01-15T05:29:19;14.17;;;10.40;;
71637;SDS011;59485;43.542;-5.676;2024-01-15T05:31:44;11.82;;;8.50;;
71637;SDS011;59485;43.542;-5.676;2024-01-15T05:34:10;11.67;;;9.67;;
71637;SDS011;59485;43.542;-5.676;2024-01-15T05:36:35;13.43;;;8.90;;
71637;SDS011;59485;43.542;-5.676;2024-01-15T05:39:01;15.20;;;9.23;;
71637;SDS011;59485;43.542;-5.676;2024-01-15T05:41:28;16.88;;;9.70;;
71637;SDS011;59485;43.542;-5.676;2024-01-15T05:43:53;15.40;;;9.00;;
71637;SDS011;59485;43.542;-5.676;2024-01-15T05:46:19;13.43;;;8.40;;
71637;SDS011;59485;43.542;-5.676;2024-01-15T05:48:45;12.27;;;8.68;;
71637;SDS011;59485;43.542;-5.676;2024-01-15T05:51:10;13.73;;;8.77;;
71637;SDS011;59485;43.542;-5.676;2024-01-15T05:53:36;15.90;;;12.73;;
71637;SDS011;59485;43.542;-5.676;2024-01-15T05:56:03;11.63;;;9.35;;
71637;SDS011;59485;43.542;-5.676;2024-01-15T05:58:29;17.73;;;16.17;;
71637;SDS011;59485;43.542;-5.676;2024-01-15T06:00:54;13.93;;;8.98;;
71637;SDS011;59485;43.542;-5.676;2024-01-15T06:03:20;12.23;;;9.40;;
71637;SDS011;59485;43.542;-5.676;2024-01-15T06:05:45;11.70;;;8.73;;
71637;SDS011;59485;43.542;-5.676;2024-01-15T06:08:11;16.70;;;8.30;;
71637;SDS011;59485;43.542;-5.676;2024-01-15T06:10:36;19.67;;;17.65;;
71637;SDS011;59485;43.542;-5.676;2024-01-15T06:13:02;13.47;;;9.47;;
71637;SDS011;59485;43.542;-5.676;2024-01-15T06:15:27;12.17;;;8.73;;
71637;SDS011;59485;43.542;-5.676;2024-01-15T06:17:53;17.98;;;9.10;;
71637;SDS011;59485;43.542;-5.676;2024-01-15T06:20:18;12.03;;;10.73;;
71637;SDS011;59485;43.542;-5.676;2024-01-15T06:22:44;13.20;;;9.07;;
71637;SDS011;59485;43.542;-5.676;2024-01-15T06:25:10;15.63;;;8.90;;
71637;SDS011;59485;43.542;-5.676;2024-01-15T06:27:35;10.87;;;8.53;;
71637;SDS011;59485;43.542;-5.676;2024-01-15T06:30:01;12.63;;;9.05;;
71637;SDS011;59485;43.542;-5.676;2024-01-15T06:32:27;14.63;;;8.80;;
71637;SDS011;59485;43.542;-5.676;2024-01-15T06:34:52;12.23;;;8.73;;
71637;SDS011;59485;43.542;-5.676;2024-01-15T06:37:18;15.73;;;8.63;;
71637;SDS011;59485;43.542;-5.676;2024-01-15T06:39:45;13.82;;;8.15;;
71637;SDS011;59485;43.542;-5.676;2024-01-15T06:42:10;17.57;;;12.20;;
71637;SDS011;59485;43.542;-5.676;2024-01-15T06:44:36;16.42;;;8.82;;
71637;SDS011;59485;43.542;-5.676;2024-01-15T06:47:07;13.87;;;12.43;;
71637;SDS011;59485;43.542;-5.676;2024-01-15T06:49:32;20.63;;;18.80;;
71637;SDS011;59485;43.542;-5.676;2024-01-15T06:51:58;13.87;;;12.43;;
71637;SDS011;59485;43.542;-5.676;2024-01-15T06:54:23;12.03;;;8.20;;
71637;SDS011;59485;43.542;-5.676;2024-01-15T06:56:49;11.40;;;7.30;;
71637;SDS011;59485;43.542;-5.676;2024-01-15T06:59:15;10.18;;;7.22;;
71637;SDS011;59485;43.542;-5.676;2024-01-15T07:01:41;13.47;;;7.57;;
71637;SDS011;59485;43.542;-5.676;2024-01-15T07:04:06;12.87;;;7.47;;
71637;SDS011;59485;43.542;-5.676;2024-01-15T07:06:32;13.82;;;8.70;;
71637;SDS011;59485;43.542;-5.676;2024-01-15T07:08:57;14.10;;;8.20;;
71637;SDS011;59485;43.542;-5.676;2024-01-15T07:11:23;10.93;;;8.37;;
71637;SDS011;59485;43.542;-5.676;2024-01-15T07:13:48;14.45;;;10.15;;
71637;SDS011;59485;43.542;-5.676;2024-01-15T07:16:14;14.50;;;8.47;;
71637;SDS011;59485;43.542;-5.676;2024-01-15T07:18:40;24.10;;;21.77;;
71637;SDS011;59485;43.542;-5.676;2024-01-15T07:21:06;16.90;;;10.83;;
71637;SDS011;59485;43.542;-5.676;2024-01-15T07:23:31;16.60;;;9.60;;
71637;SDS011;59485;43.542;-5.676;2024-01-15T07:25:57;15.57;;;9.20;;
71637;SDS011;59485;43.542;-5.676;2024-01-15T07:28:23;13.33;;;8.73;;
71637;SDS011;59485;43.542;-5.676;2024-01-15T07:30:48;15.10;;;9.07;;
71637;SDS011;59485;43.542;-5.676;2024-01-15T07:33:14;12.67;;;9.03;;
71637;SDS011;59485;43.542;-5.676;2024-01-15T07:35:39;9.50;;;7.72;;
71637;SDS011;59485;43.542;-5.676;2024-01-15T07:38:05;13.67;;;11.67;;
71637;SDS011;59485;43.542;-5.676;2024-01-15T07:40:30;9.43;;;7.10;;
71637;SDS011;59485;43.542;-5.676;2024-01-15T07:42:56;18.70;;;17.10;;
71637;SDS011;59485;43.542;-5.676;2024-01-15T07:45:21;10.30;;;8.60;;
71637;SDS011;59485;43.542;-5.676;2024-01-15T07:47:47;11.87;;;6.70;;
71637;SDS011;59485;43.542;-5.676;2024-01-15T07:50:14;9.35;;;7.13;;
71637;SDS011;59485;43.542;-5.676;2024-01-15T07:52:40;11.33;;;8.40;;
71637;SDS011;59485;43.542;-5.676;2024-01-15T07:55:08;10.53;;;6.70;;
71637;SDS011;59485;43.542;-5.676;2024-01-15T07:57:34;8.40;;;7.20;;
71637;SDS011;59485;43.542;-5.676;2024-01-15T08:00:01;9.47;;;6.30;;
71637;SDS011;59485;43.542;-5.676;2024-01-15T08:02:28;11.07;;;6.95;;
71637;SDS011;59485;43.542;-5.676;2024-01-15T08:04:54;12.18;;;7.80;;
71637;SDS011;59485;43.542;-5.676;2024-01-15T08:07:19;18.70;;;16.97;;
71637;SDS011;59485;43.542;-5.676;2024-01-15T08:09:45;13.47;;;7.27;;
71637;SDS011;59485;43.542;-5.676;2024-01-15T08:12:12;14.52;;;13.13;;
71637;SDS011;59485;43.542;-5.676;2024-01-15T08:14:38;9.60;;;7.73;;
71637;SDS011;59485;43.542;-5.676;2024-01-15T08:17:04;14.38;;;7.03;;
71637;SDS011;59485;43.542;-5.676;2024-01-15T08:19:29;8.10;;;6.60;;
71637;SDS011;59485;43.542;-5.676;2024-01-15T08:21:55;11.25;;;7.80;;
71637;SDS011;59485;43.542;-5.676;2024-01-15T08:24:20;11.60;;;7.50;;
71637;SDS011;59485;43.542;-5.676;2024-01-15T08:26:46;16.87;;;12.97;;
71637;SDS011;59485;43.542;-5.676;2024-01-15T08:29:11;14.13;;;9.98;;
71637;SDS011;59485;43.542;-5.676;2024-01-15T08:31:37;28.37;;;25.60;;
71637;SDS011;59485;43.542;-5.676;2024-01-15T08:34:03;26.13;;;12.60;;
71637;SDS011;59485;43.542;-5.676;2024-01-15T08:36:28;25.58;;;11.52;;
71637;SDS011;59485;43.542;-5.676;2024-01-15T08:38:59;26.42;;;11.98;;
71637;SDS011;59485;43.542;-5.676;2024-01-15T08:41:25;25.03;;;10.87;;
71637;SDS011;59485;43.542;-5.676;2024-01-15T08:43:50;24.90;;;12.03;;
71637;SDS011;59485;43.542;-5.676;2024-01-15T08:46:18;20.63;;;12.73;;
71637;SDS011;59485;43.542;-5.676;2024-01-15T08:48:43;22.38;;;11.93;;
71637;SDS011;59485;43.542;-5.676;2024-01-15T08:51:09;26.00;;;11.57;;
71637;SDS011;59485;43.542;-5.676;2024-01-15T08:53:34;23.20;;;11.70;;
71637;SDS011;59485;43.542;-5.676;2024-01-15T08:56:00;20.23;;;10.83;;
71637;SDS011;59485;43.542;-5.676;2024-01-15T08:58:25;15.23;;;11.17;;
71637;SDS011;59485;43.542;-5.676;2024-01-15T09:00:51;12.87;;;9.83;;
71637;SDS011;59485;43.542;-5.676;2024-01-15T09:03:17;14.60;;;10.18;;
71637;SDS011;59485;43.542;-5.676;2024-01-15T09:05:42;14.23;;;9.70;;
71637;SDS011;59485;43.542;-5.676;2024-01-15T09:08:08;15.73;;;10.93;;
71637;SDS011;59485;43.542;-5.676;2024-01-15T09:10:34;14.30;;;9.97;;
71637;SDS011;59485;43.542;-5.676;2024-01-15T09:12:59;15.13;;;9.55;;
71637;SDS011;59485;43.542;-5.676;2024-01-15T09:15:25;25.13;;;22.97;;
71637;SDS011;59485;43.542;-5.676;2024-01-15T09:17:50;16.10;;;8.93;;
71637;SDS011;59485;43.542;-5.676;2024-01-15T09:20:16;10.48;;;7.97;;
71637;SDS011;59485;43.542;-5.676;2024-01-15T09:22:42;9.48;;;7.55;;
71637;SDS011;59485;43.542;-5.676;2024-01-15T09:25:08;10.80;;;7.80;;
71637;SDS011;59485;43.542;-5.676;2024-01-15T09:27:36;11.32;;;7.82;;
71637;SDS011;59485;43.542;-5.676;2024-01-15T09:30:03;10.40;;;7.87;;
71637;SDS011;59485;43.542;-5.676;2024-01-15T09:32:31;9.43;;;7.60;;
71637;SDS011;59485;43.542;-5.676;2024-01-15T09:34:58;10.05;;;7.45;;
71637;SDS011;59485;43.542;-5.676;2024-01-15T09:37:23;10.60;;;7.17;;
71637;SDS011;59485;43.542;-5.676;2024-01-15T09:39:49;8.45;;;7.28;;
71637;SDS011;59485;43.542;-5.676;2024-01-15T09:42:15;8.75;;;7.28;;
71637;SDS011;59485;43.542;-5.676;2024-01-15T09:44:41;8.70;;;7.70;;
71637;SDS011;59485;43.542;-5.676;2024-01-15T09:47:07;9.68;;;7.45;;
71637;SDS011;59485;43.542;-5.676;2024-01-15T09:49:33;12.50;;;8.90;;
71637;SDS011;59485;43.542;-5.676;2024-01-15T09:51:58;16.27;;;8.00;;
71637;SDS011;59485;43.542;-5.676;2024-01-15T09:54:26;13.63;;;11.20;;
71637;SDS011;59485;43.542;-5.676;2024-01-15T09:56:52;10.73;;;7.83;;
71637;SDS011;59485;43.542;-5.676;2024-01-15T09:59:19;19.65;;;17.80;;
71637;SDS011;59485;43.542;-5.676;2024-01-15T10:01:45;13.98;;;10.25;;
71637;SDS011;59485;43.542;-5.676;2024-01-15T10:04:13;14.77;;;10.35;;
71637;SDS011;59485;43.542;-5.676;2024-01-15T10:06:43;15.40;;;10.60;;
71637;SDS011;59485;43.542;-5.676;2024-01-15T10:09:13;15.23;;;9.30;;
71637;SDS011;59485;43.542;-5.676;2024-01-15T10:11:42;17.27;;;13.40;;
71637;SDS011;59485;43.542;-5.676;2024-01-15T10:14:11;15.23;;;11.20;;
71637;SDS011;59485;43.542;-5.676;2024-01-15T10:16:38;19.60;;;12.40;;
71637;SDS011;59485;43.542;-5.676;2024-01-15T10:19:04;28.67;;;25.70;;
71637;SDS011;59485;43.542;-5.676;2024-01-15T10:21:31;21.65;;;13.60;;
71637;SDS011;59485;43.542;-5.676;2024-01-15T10:26:30;21.73;;;14.75;;
71637;SDS011;59485;43.542;-5.676;2024-01-15T10:29:00;29.73;;;17.97;;
71637;SDS011;59485;43.542;-5.676;2024-01-15T10:31:26;30.75;;;21.42;;
71637;SDS011;59485;43.542;-5.676;2024-01-15T10:33:52;34.00;;;18.58;;
71637;SDS011;59485;43.542;-5.676;2024-01-15T10:36:18;40.53;;;36.40;;
71637;SDS011;59485;43.542;-5.676;2024-01-15T10:38:44;33.93;;;20.30;;
71637;SDS011;59485;43.542;-5.676;2024-01-15T10:41:10;34.58;;;22.35;;
71637;SDS011;59485;43.542;-5.676;2024-01-15T10:43:45;38.13;;;24.02;;
71637;SDS011;59485;43.542;-5.676;2024-01-15T10:46:10;41.00;;;27.23;;
71637;SDS011;59485;43.542;-5.676;2024-01-15T10:48:37;40.65;;;27.15;;
71637;SDS011;59485;43.542;-5.676;2024-01-15T10:51:02;35.30;;;22.58;;
71637;SDS011;59485;43.542;-5.676;2024-01-15T10:53:37;41.43;;;28.93;;
71637;SDS011;59485;43.542;-5.676;2024-01-15T10:56:06;32.15;;;22.33;;
71637;SDS011;59485;43.542;-5.676;2024-01-15T10:58:33;30.90;;;20.58;;
71637;SDS011;59485;43.542;-5.676;2024-01-15T11:01:00;29.42;;;19.13;;
71637;SDS011;59485;43.542;-5.676;2024-01-15T11:03:27;30.48;;;19.50;;
71637;SDS011;59485;43.542;-5.676;2024-01-15T11:05:53;24.17;;;17.93;;
71637;SDS011;59485;43.542;-5.676;2024-01-15T11:08:19;25.88;;;18.60;;
71637;SDS011;59485;43.542;-5.676;2024-01-15T11:10:50;33.63;;;19.40;;
71637;SDS011;59485;43.542;-5.676;2024-01-15T11:16:07;21.73;;;13.48;;
71637;SDS011;59485;43.542;-5.676;2024-01-15T11:18:36;15.50;;;12.98;;
71637;SDS011;59485;43.542;-5.676;2024-01-15T11:23:51;14.52;;;11.30;;
71637;SDS011;59485;43.542;-5.676;2024-01-15T11:26:37;13.80;;;10.10;;
71637;SDS011;59485;43.542;-5.676;2024-01-15T11:31:57;13.85;;;8.77;;
71637;SDS011;59485;43.542;-5.676;2024-01-15T11:37:56;15.23;;;12.80;;
71637;SDS011;59485;43.542;-5.676;2024-01-15T11:40:23;18.03;;;10.60;;
71637;SDS011;59485;43.542;-5.676;2024-01-15T11:43:03;20.95;;;15.43;;
71637;SDS011;59485;43.542;-5.676;2024-01-15T11:45:34;18.15;;;14.75;;
71637;SDS011;59485;43.542;-5.676;2024-01-15T11:48:13;16.17;;;14.18;;
71637;SDS011;59485;43.542;-5.676;2024-01-15T11:50:42;15.73;;;14.13;;
71637;SDS011;59485;43.542;-5.676;2024-01-15T11:55:59;25.42;;;23.17;;
71637;SDS011;59485;43.542;-5.676;2024-01-15T11:58:27;14.68;;;12.63;;
71637;SDS011;59485;43.542;-5.676;2024-01-15T12:00:53;17.13;;;15.43;;
71637;SDS011;59485;43.542;-5.676;2024-01-15T12:03:23;10.23;;;9.25;;
71637;SDS011;59485;43.542;-5.676;2024-01-15T12:05:49;10.90;;;9.37;;
71637;SDS011;59485;43.542;-5.676;2024-01-15T12:08:20;14.23;;;9.60;;
71637;SDS011;59485;43.542;-5.676;2024-01-15T12:10:47;13.32;;;9.70;;
71637;SDS011;59485;43.542;-5.676;2024-01-15T12:13:13;15.93;;;14.53;;
71637;SDS011;59485;43.542;-5.676;2024-01-15T12:15:39;15.38;;;11.55;;
71637;SDS011;59485;43.542;-5.676;2024-01-15T12:18:07;11.85;;;10.65;;
71637;SDS011;59485;43.542;-5.676;2024-01-15T12:20:33;12.70;;;10.90;;
71637;SDS011;59485;43.542;-5.676;2024-01-15T12:23:00;15.37;;;12.17;;
71637;SDS011;59485;43.542;-5.676;2024-01-15T12:25:28;17.45;;;11.27;;
71637;SDS011;59485;43.542;-5.676;2024-01-15T12:27:55;12.68;;;10.27;;
71637;SDS011;59485;43.542;-5.676;2024-01-15T12:30:20;14.38;;;10.20;;
71637;SDS011;59485;43.542;-5.676;2024-01-15T12:32:46;15.13;;;12.83;;
71637;SDS011;59485;43.542;-5.676;2024-01-15T12:35:12;11.43;;;9.23;;
71637;SDS011;59485;43.542;-5.676;2024-01-15T12:37:42;11.65;;;10.63;;
71637;SDS011;59485;43.542;-5.676;2024-01-15T12:40:09;21.73;;;19.83;;
71637;SDS011;59485;43.542;-5.676;2024-01-15T12:42:36;10.88;;;9.88;;
71637;SDS011;59485;43.542;-5.676;2024-01-15T12:45:05;9.63;;;8.50;;
71637;SDS011;59485;43.542;-5.676;2024-01-15T12:47:32;9.38;;;8.07;;
71637;SDS011;59485;43.542;-5.676;2024-01-15T12:49:58;31.53;;;29.47;;
71637;SDS011;59485;43.542;-5.676;2024-01-15T12:52:26;8.35;;;7.35;;
71637;SDS011;59485;43.542;-5.676;2024-01-15T12:54:52;8.63;;;7.72;;
71637;SDS011;59485;43.542;-5.676;2024-01-15T12:57:18;23.80;;;22.03;;
71637;SDS011;59485;43.542;-5.676;2024-01-15T12:59:44;10.83;;;7.10;;
71637;SDS011;59485;43.542;-5.676;2024-01-15T13:02:10;9.13;;;8.20;;
71637;SDS011;59485;43.542;-5.676;2024-01-15T13:04:39;10.13;;;8.20;;
71637;SDS011;59485;43.542;-5.676;2024-01-15T13:07:08;8.73;;;7.53;;
71637;SDS011;59485;43.542;-5.676;2024-01-15T13:09:34;10.18;;;7.85;;
71637;SDS011;59485;43.542;-5.676;2024-01-15T13:12:00;8.73;;;7.25;;
71637;SDS011;59485;43.542;-5.676;2024-01-15T13:14:28;23.75;;;21.98;;
71637;SDS011;59485;43.542;-5.676;2024-01-15T13:16:54;8.52;;;7.72;;
71637;SDS011;59485;43.542;-5.676;2024-01-15T13:19:20;9.30;;;7.33;;
71637;SDS011;59485;43.542;-5.676;2024-01-15T13:21:47;14.75;;;13.45;;
71637;SDS011;59485;43.542;-5.676;2024-01-15T13:24:13;9.55;;;8.73;;
71637;SDS011;59485;43.542;-5.676;2024-01-15T13:26:39;7.82;;;7.03;;
71637;SDS011;59485;43.542;-5.676;2024-01-15T13:29:05;10.17;;;7.20;;
71637;SDS011;59485;43.542;-5.676;2024-01-15T13:31:31;8.40;;;7.20;;
71637;SDS011;59485;43.542;-5.676;2024-01-15T13:34:00;14.40;;;8.65;;
71637;SDS011;59485;43.542;-5.676;2024-01-15T13:36:26;17.80;;;8.73;;
71637;SDS011;59485;43.542;-5.676;2024-01-15T13:38:54;15.73;;;10.07;;
71637;SDS011;59485;43.542;-5.676;2024-01-15T13:41:20;12.55;;;9.45;;
71637;SDS011;59485;43.542;-5.676;2024-01-15T13:43:53;14.97;;;12.83;;
71637;SDS011;59485;43.542;-5.676;2024-01-15T13:46:23;11.80;;;10.60;;
71637;SDS011;59485;43.542;-5.676;2024-01-15T13:48:52;18.33;;;13.50;;
71637;SDS011;59485;43.542;-5.676;2024-01-15T13:51:19;14.98;;;9.73;;
71637;SDS011;59485;43.542;-5.676;2024-01-15T13:53:48;15.85;;;9.95;;
71637;SDS011;59485;43.542;-5.676;2024-01-15T13:56:15;17.40;;;8.97;;
71637;SDS011;59485;43.542;-5.676;2024-01-15T13:58:41;11.45;;;7.90;;
71637;SDS011;59485;43.542;-5.676;2024-01-15T14:01:07;8.85;;;6.55;;
71637;SDS011;59485;43.542;-5.676;2024-01-15T14:03:33;8.27;;;6.60;;
71637;SDS011;59485;43.542;-5.676;2024-01-15T14:05:59;8.05;;;6.07;;
71637;SDS011;59485;43.542;-5.676;2024-01-15T14:08:25;11.73;;;10.43;;
71637;SDS011;59485;43.542;-5.676;2024-01-15T14:10:50;7.82;;;7.03;;
71637;SDS011;59485;43.542;-5.676;2024-01-15T14:13:17;9.70;;;6.03;;
71637;SDS011;59485;43.542;-5.676;2024-01-15T14:15:42;6.60;;;5.30;;
71637;SDS011;59485;43.542;-5.676;2024-01-15T14:18:08;11.27;;;9.73;;
71637;SDS011;59485;43.542;-5.676;2024-01-15T14:20:33;9.23;;;6.40;;
71637;SDS011;59485;43.542;-5.676;2024-01-15T14:22:59;11.63;;;10.52;;
71637;SDS011;59485;43.542;-5.676;2024-01-15T14:25:24;7.13;;;5.50;;
71637;SDS011;59485;43.542;-5.676;2024-01-15T14:27:50;9.40;;;8.60;;